Inicio METAR Ruta Wind Satelite

Informe Meteorológico

Fecha: 2020/09/22 22:14:40 Local
2020.09.23 03:14 UTC


Estado: VENCIDO
Operación:VFR
Ibague / Perales, Colombia (SKIB) 04-26N 075-09W
2020.09.22 2300 UTC
Wind: from the SE (140 degrees) at 5 MPH (4 KT):0
Visibility: greater than 7 mile(s):0
Sky conditions: partly cloudy
Temperature: 82 F (28 C)
Dew Point: 64 F (18 C)
Relative Humidity: 54%
Pressure (altimeter): 29.95 in. Hg (1014 hPa)
ob: SKIB 222300Z 14004KT 9999 FEW020 SCT200 28/18 A2995
cycle: 23

SKIB 222200Z 15005KT 9999 FEW020 SCT200 30/17 A2994
SKIB 222100Z VRB03KT 9999 FEW020 SCT200 32/19 A2994
SKIB 222000Z 20004KT 9999 FEW020 BKN200 31/20 A2996
SKIB 221900Z 15006KT 9999 FEW020 BKN200 30/20 A2999
SKIB 221800Z 17007KT 9999 FEW020 BKN200 29/21 A3001